Time;durP1;ratioP1;P1;durP2;ratioP2;P2;SDS_P1;SDS_P2;PMS_P1;PMS_P2;Temp;Humidity;BMP_temperature;BMP_pressure;BME280_temperature;BME280_humidity;BME280_pressure;Samples;Min_cycle;Max_cycle;Signal;HPM_P1;HPM_P2
2023/09/18 00:00:42;;;;;;;14.00;6.80;;;17.20;99.90;;;;;;5024694;28;20056;-71
2023/09/18 00:03:08;;;;;;;10.27;6.45;;;17.20;99.90;;;;;;5023867;28;20041;-71
2023/09/18 00:05:34;;;;;;;12.77;7.10;;;17.10;99.90;;;;;;5022945;28;20041;-71
2023/09/18 00:08:01;;;;;;;13.48;7.20;;;17.10;99.90;;;;;;5025949;28;20053;-71
2023/09/18 00:10:28;;;;;;;11.98;7.68;;;17.10;99.90;;;;;;5025204;28;20427;-71
2023/09/18 00:12:54;;;;;;;13.13;7.30;;;17.10;99.90;;;;;;5025125;28;20045;-71
2023/09/18 00:15:20;;;;;;;12.52;6.55;;;17.10;99.90;;;;;;5024462;28;20095;-71
2023/09/18 00:17:45;;;;;;;13.00;6.50;;;17.10;99.90;;;;;;5026227;28;20068;-71
2023/09/18 00:20:11;;;;;;;12.60;6.90;;;17.10;99.90;;;;;;5023641;28;20483;-71
2023/09/18 00:22:37;;;;;;;11.73;7.32;;;17.00;99.90;;;;;;5021770;28;20048;-71
2023/09/18 00:25:03;;;;;;;14.75;6.93;;;17.10;99.90;;;;;;5006246;28;20049;-71
2023/09/18 00:27:29;;;;;;;13.63;6.85;;;17.00;99.90;;;;;;5040821;28;20037;-71
2023/09/18 00:29:55;;;;;;;13.52;6.35;;;17.00;99.90;;;;;;5023812;28;20067;-71
2023/09/18 00:32:20;;;;;;;13.93;7.20;;;17.00;99.90;;;;;;5009836;28;20069;-71
2023/09/18 00:34:46;;;;;;;12.82;7.88;;;17.00;99.90;;;;;;5024447;28;20080;-71
2023/09/18 00:37:12;;;;;;;11.32;6.55;;;17.00;99.90;;;;;;5019113;28;20050;-71
2023/09/18 00:39:38;;;;;;;11.00;6.45;;;17.00;99.90;;;;;;5024189;28;20037;-71
2023/09/18 00:42:04;;;;;;;12.13;6.47;;;16.90;99.90;;;;;;5030412;28;20506;-71
2023/09/18 00:44:29;;;;;;;11.82;6.28;;;16.90;99.90;;;;;;5045106;28;20053;-71
2023/09/18 00:46:56;;;;;;;12.00;6.18;;;16.90;99.90;;;;;;5028358;28;20033;-71
2023/09/18 00:49:22;;;;;;;11.05;6.88;;;16.90;99.90;;;;;;5028159;28;20034;-71
2023/09/18 00:51:49;;;;;;;11.27;6.35;;;16.90;99.90;;;;;;5024032;28;20041;-71
2023/09/18 00:54:18;;;;;;;10.38;6.18;;;16.90;99.90;;;;;;5007641;28;20083;-71
2023/09/18 00:56:45;;;;;;;10.38;6.30;;;16.90;99.90;;;;;;5022470;28;20391;-71
2023/09/18 00:59:12;;;;;;;10.75;5.72;;;16.80;99.90;;;;;;5023370;28;20078;-71
2023/09/18 01:01:39;;;;;;;10.48;5.75;;;16.80;99.90;;;;;;5023152;28;20034;-71
2023/09/18 01:04:05;;;;;;;11.40;5.82;;;16.80;99.90;;;;;;5025108;28;20038;-71
2023/09/18 01:06:30;;;;;;;11.57;6.70;;;16.80;99.90;;;;;;5022419;28;20158;-71
2023/09/18 01:08:56;;;;;;;11.88;6.80;;;16.80;99.90;;;;;;5023406;28;20548;-71
2023/09/18 01:11:37;;;;;;;15.60;7.65;;;16.80;99.90;;;;;;5025917;28;20045;-71
2023/09/18 01:14:38;;;;;;;15.32;8.55;;;16.90;99.90;;;;;;5026519;28;20037;-71
2023/09/18 01:17:07;;;;;;;14.93;7.68;;;16.90;99.90;;;;;;5023891;28;20033;-71
2023/09/18 01:19:46;;;;;;;16.52;7.93;;;16.90;99.90;;;;;;5025478;28;20120;-71
2023/09/18 01:22:14;;;;;;;15.45;8.13;;;16.90;99.90;;;;;;5022259;28;20045;-71
2023/09/18 01:24:41;;;;;;;15.13;8.57;;;16.90;99.90;;;;;;5033323;28;20441;-71
2023/09/18 01:27:14;;;;;;;16.67;8.73;;;17.00;99.90;;;;;;5022971;28;20069;-71
2023/09/18 01:29:41;;;;;;;15.20;9.00;;;17.00;99.90;;;;;;5023065;28;20045;-71
2023/09/18 01:32:06;;;;;;;19.13;9.85;;;17.00;99.90;;;;;;5023324;28;20165;-71
2023/09/18 01:34:49;;;;;;;17.10;9.77;;;17.00;99.90;;;;;;5024500;28;20435;-71
2023/09/18 01:37:22;;;;;;;17.33;9.07;;;17.00;99.90;;;;;;5017645;28;20613;-71
2023/09/18 01:39:50;;;;;;;18.02;10.18;;;17.10;99.90;;;;;;5021190;28;20106;-71
2023/09/18 01:42:16;;;;;;;18.50;9.82;;;17.10;99.90;;;;;;5027657;28;20065;-71
2023/09/18 01:44:43;;;;;;;18.42;10.00;;;17.10;99.90;;;;;;5022885;28;20072;-71
2023/09/18 01:47:12;;;;;;;16.15;9.25;;;17.10;99.90;;;;;;5026928;28;20045;-71
2023/09/18 01:49:39;;;;;;;19.35;10.10;;;17.10;99.90;;;;;;5027980;28;20041;-71
2023/09/18 01:52:06;;;;;;;20.02;10.38;;;17.10;99.90;;;;;;5024551;28;20054;-71
2023/09/18 01:54:33;;;;;;;17.35;9.10;;;17.10;99.90;;;;;;5021542;28;20056;-71
2023/09/18 01:56:59;;;;;;;16.05;8.70;;;17.10;99.90;;;;;;5003991;28;20029;-71
2023/09/18 01:59:25;;;;;;;17.38;9.15;;;17.10;99.90;;;;;;5024309;28;20482;-71
2023/09/18 02:01:52;;;;;;;17.58;9.65;;;17.10;99.90;;;;;;5022782;28;20033;-71
2023/09/18 02:04:18;;;;;;;16.60;9.27;;;17.10;99.90;;;;;;5004162;28;20037;-71
2023/09/18 02:06:44;;;;;;;18.90;9.95;;;17.10;99.90;;;;;;5021476;28;20491;-71
2023/09/18 02:09:10;;;;;;;18.85;9.82;;;17.10;99.90;;;;;;5023563;28;20041;-71
2023/09/18 02:11:40;;;;;;;18.20;9.25;;;17.10;99.90;;;;;;5024582;28;20049;-71
2023/09/18 02:14:07;;;;;;;15.15;8.60;;;17.10;99.90;;;;;;5043365;28;20478;-71
2023/09/18 02:16:37;;;;;;;17.92;9.13;;;17.10;99.90;;;;;;5011890;28;20402;-71
2023/09/18 02:19:03;;;;;;;16.85;8.95;;;17.10;99.90;;;;;;5042313;28;20029;-71
2023/09/18 02:21:30;;;;;;;18.05;8.70;;;17.10;99.90;;;;;;5041221;28;20040;-71
2023/09/18 02:23:56;;;;;;;16.58;10.05;;;17.10;99.90;;;;;;5024595;28;20034;-71
2023/09/18 02:26:23;;;;;;;17.27;9.18;;;17.10;99.90;;;;;;5010142;28;20069;-71
2023/09/18 02:28:48;;;;;;;14.48;8.38;;;17.10;99.90;;;;;;5028161;28;20060;-71
2023/09/18 02:31:15;;;;;;;15.27;8.98;;;17.10;99.90;;;;;;5026238;28;20061;-71
2023/09/18 02:33:41;;;;;;;13.80;7.90;;;17.10;99.90;;;;;;5025316;28;20352;-71
2023/09/18 02:36:07;;;;;;;16.17;9.73;;;17.20;99.90;;;;;;5042397;28;20052;-71
2023/09/18 02:38:33;;;;;;;21.15;9.48;;;17.10;99.90;;;;;;5009294;28;20041;-71
2023/09/18 02:40:59;;;;;;;16.50;8.65;;;17.20;99.90;;;;;;5020205;28;20041;-71
2023/09/18 02:43:25;;;;;;;16.15;8.30;;;17.20;99.90;;;;;;5025250;28;20044;-71
2023/09/18 02:45:51;;;;;;;13.52;8.13;;;17.20;99.90;;;;;;5025545;28;20045;-71
2023/09/18 02:48:17;;;;;;;15.70;8.30;;;17.10;99.90;;;;;;5026092;28;20037;-71
2023/09/18 02:50:43;;;;;;;15.50;8.40;;;17.20;99.90;;;;;;5025136;28;20552;-71
2023/09/18 02:53:17;;;;;;;16.00;8.07;;;17.20;99.90;;;;;;5006517;28;20076;-71
2023/09/18 02:55:43;;;;;;;15.05;8.02;;;17.20;99.90;;;;;;5023937;28;20041;-71
2023/09/18 02:58:10;;;;;;;13.85;8.30;;;17.20;99.90;;;;;;5024913;28;20087;-71
2023/09/18 03:00:40;;;;;;;15.10;8.30;;;17.10;99.90;;;;;;5025518;28;20095;-71
2023/09/18 03:03:06;;;;;;;12.52;7.95;;;17.10;99.90;;;;;;5025508;28;20172;-71
2023/09/18 03:05:31;;;;;;;13.27;7.57;;;17.20;99.90;;;;;;5022086;28;20060;-71
2023/09/18 03:07:57;;;;;;;14.38;7.47;;;17.20;99.90;;;;;;5023976;28;20045;-71
2023/09/18 03:10:23;;;;;;;13.77;8.18;;;17.20;99.90;;;;;;5025477;28;20084;-71
2023/09/18 03:12:49;;;;;;;13.07;7.53;;;17.20;99.90;;;;;;5042028;28;20095;-71
2023/09/18 03:15:14;;;;;;;13.73;8.05;;;17.20;99.90;;;;;;5023917;28;20037;-71
2023/09/18 03:17:41;;;;;;;13.82;7.85;;;17.20;99.90;;;;;;5026433;28;20067;-71
2023/09/18 03:20:08;;;;;;;14.27;7.35;;;17.10;99.90;;;;;;5025124;28;20045;-71
2023/09/18 03:22:34;;;;;;;13.93;7.25;;;17.20;99.90;;;;;;5023140;28;20136;-71
2023/09/18 03:25:00;;;;;;;12.60;6.95;;;17.20;99.90;;;;;;5006582;28;20191;-71
2023/09/18 03:27:28;;;;;;;13.45;6.97;;;17.20;99.90;;;;;;5025554;28;20037;-71
2023/09/18 03:29:54;;;;;;;13.90;7.13;;;17.20;99.90;;;;;;5024958;28;20041;-71
2023/09/18 03:32:20;;;;;;;14.25;6.57;;;17.20;99.90;;;;;;5022615;28;20457;-71
2023/09/18 03:34:46;;;;;;;11.82;6.00;;;17.20;99.90;;;;;;4988322;28;1045148;-71
2023/09/18 03:37:12;;;;;;;13.25;6.93;;;17.20;99.90;;;;;;5021870;28;20049;-71
2023/09/18 03:39:37;;;;;;;11.00;6.55;;;17.20;99.90;;;;;;5024170;28;20049;-71
2023/09/18 03:42:03;;;;;;;14.25;6.50;;;17.20;99.90;;;;;;5024088;28;20161;-71
2023/09/18 03:44:29;;;;;;;12.63;6.63;;;17.20;99.90;;;;;;5022798;28;20145;-71
2023/09/18 03:46:54;;;;;;;12.45;6.88;;;17.20;99.90;;;;;;5029519;28;20475;-71
2023/09/18 03:49:20;;;;;;;11.68;6.65;;;17.20;99.90;;;;;;5030110;28;20048;-71
2023/09/18 03:51:45;;;;;;;12.73;6.35;;;17.20;99.90;;;;;;5023849;28;20081;-71
2023/09/18 03:54:11;;;;;;;12.95;6.40;;;17.20;99.90;;;;;;5024788;28;20041;-71
2023/09/18 03:56:37;;;;;;;11.25;6.35;;;17.20;99.90;;;;;;5027713;28;20038;-71
2023/09/18 03:59:04;;;;;;;13.65;6.75;;;17.20;99.90;;;;;;5027219;28;20033;-71
2023/09/18 04:01:30;;;;;;;11.57;6.80;;;17.20;99.90;;;;;;5021754;28;20052;-71
2023/09/18 04:03:56;;;;;;;11.48;6.53;;;17.20;99.90;;;;;;5006444;28;20029;-72
2023/09/18 04:06:24;;;;;;;14.32;6.90;;;17.20;99.90;;;;;;5025751;28;20042;-71
2023/09/18 04:08:51;;;;;;;15.32;6.78;;;17.20;99.90;;;;;;5025762;28;20140;-71
2023/09/18 04:11:17;;;;;;;11.68;6.70;;;17.20;99.90;;;;;;5007550;28;20045;-71
2023/09/18 04:13:42;;;;;;;11.75;6.10;;;17.20;99.90;;;;;;5023018;28;20040;-71
2023/09/18 04:16:08;;;;;;;11.32;6.47;;;17.20;99.90;;;;;;5023848;28;20147;-71
2023/09/18 04:18:33;;;;;;;11.57;5.75;;;17.20;99.90;;;;;;5023149;28;20071;-71
2023/09/18 04:20:59;;;;;;;10.48;6.07;;;17.20;99.90;;;;;;5024583;28;20038;-71
2023/09/18 04:23:26;;;;;;;12.13;6.53;;;17.20;99.90;;;;;;5028522;28;20029;-71
2023/09/18 04:25:53;;;;;;;11.18;6.15;;;17.10;99.90;;;;;;5024707;28;20059;-71
2023/09/18 04:28:21;;;;;;;10.90;5.68;;;17.10;99.90;;;;;;5024100;28;20056;-71
2023/09/18 04:30:47;;;;;;;11.30;5.78;;;17.20;99.90;;;;;;5025263;28;20033;-71
2023/09/18 04:33:16;;;;;;;11.77;6.53;;;17.20;99.90;;;;;;5022278;28;20039;-71
2023/09/18 04:35:43;;;;;;;8.95;5.55;;;17.20;99.90;;;;;;5021291;28;20388;-71
2023/09/18 04:38:10;;;;;;;11.13;6.03;;;17.20;99.90;;;;;;5024730;28;20513;-71
2023/09/18 04:40:36;;;;;;;11.80;5.93;;;17.20;99.90;;;;;;5024811;28;20124;-71
2023/09/18 04:43:04;;;;;;;12.35;5.93;;;17.20;99.90;;;;;;5025505;28;20195;-71
2023/09/18 04:45:30;;;;;;;10.20;6.03;;;17.20;99.90;;;;;;5016465;28;20690;-71
2023/09/18 04:47:56;;;;;;;9.95;5.72;;;17.20;99.90;;;;;;5022251;28;20244;-71
2023/09/18 04:50:22;;;;;;;9.98;5.53;;;17.20;99.90;;;;;;5011899;28;20204;-71
2023/09/18 04:52:50;;;;;;;9.45;5.75;;;17.20;99.90;;;;;;5015139;28;20064;-71
2023/09/18 04:55:16;;;;;;;9.95;5.15;;;17.20;99.90;;;;;;5022662;28;20042;-71
2023/09/18 04:57:41;;;;;;;10.10;5.38;;;17.20;99.90;;;;;;5008157;28;20033;-71
2023/09/18 05:00:08;;;;;;;9.80;5.45;;;17.30;99.90;;;;;;5025096;28;20125;-71
2023/09/18 05:02:34;;;;;;;9.68;4.80;;;17.20;99.90;;;;;;5005654;28;20124;-71
2023/09/18 05:05:01;;;;;;;10.55;5.53;;;17.30;99.90;;;;;;5023631;28;20043;-71
2023/09/18 05:07:26;;;;;;;12.40;5.32;;;17.30;99.90;;;;;;5020857;28;20029;-71
2023/09/18 05:09:52;;;;;;;10.30;5.53;;;17.30;99.90;;;;;;5023384;28;20047;-71
2023/09/18 05:12:18;;;;;;;10.60;5.43;;;17.30;99.90;;;;;;5041264;28;20053;-71
2023/09/18 05:14:44;;;;;;;9.13;5.13;;;17.30;99.90;;;;;;5023066;28;20042;-71
2023/09/18 05:17:16;;;;;;;12.88;5.25;;;17.30;99.90;;;;;;5008084;28;20087;-71
2023/09/18 05:19:43;;;;;;;9.95;5.18;;;17.30;99.90;;;;;;5024680;28;20103;-71
2023/09/18 05:22:12;;;;;;;7.65;4.63;;;17.30;99.90;;;;;;5037558;28;20040;-71
2023/09/18 05:24:38;;;;;;;9.45;4.97;;;17.30;99.90;;;;;;5020256;28;20034;-71
2023/09/18 05:27:06;;;;;;;10.00;4.95;;;17.40;99.90;;;;;;5024250;28;20033;-71
2023/09/18 05:29:32;;;;;;;8.85;4.97;;;17.30;99.90;;;;;;5005896;28;20037;-71
2023/09/18 05:31:57;;;;;;;11.05;4.43;;;17.40;99.90;;;;;;5021161;28;20467;-71
2023/09/18 05:34:23;;;;;;;11.80;4.80;;;17.40;99.90;;;;;;5024442;28;20051;-71
2023/09/18 05:36:48;;;;;;;8.52;4.25;;;17.40;99.90;;;;;;5007679;28;20522;-71
2023/09/18 05:39:14;;;;;;;8.85;4.85;;;17.40;99.90;;;;;;5025514;28;20034;-71
2023/09/18 05:41:41;;;;;;;8.50;4.45;;;17.40;99.90;;;;;;5022111;28;20398;-71
2023/09/18 05:44:07;;;;;;;8.80;4.45;;;17.40;99.90;;;;;;5027785;28;20038;-71
2023/09/18 05:46:35;;;;;;;9.40;4.32;;;17.40;99.90;;;;;;5027536;28;20577;-71
2023/09/18 05:49:00;;;;;;;8.85;4.70;;;17.40;99.90;;;;;;5026682;28;20120;-71
2023/09/18 05:51:27;;;;;;;7.32;4.13;;;17.50;99.90;;;;;;5024161;28;20043;-71
2023/09/18 05:53:53;;;;;;;7.60;4.13;;;17.50;99.90;;;;;;5023599;28;20040;-71
2023/09/18 05:56:18;;;;;;;8.82;4.38;;;17.50;99.90;;;;;;5023142;28;20041;-71
2023/09/18 05:58:44;;;;;;;7.82;4.03;;;17.50;99.90;;;;;;5023161;28;20045;-71
2023/09/18 06:01:10;;;;;;;6.43;3.50;;;17.50;99.90;;;;;;5020599;28;20486;-71
2023/09/18 06:03:35;;;;;;;6.53;3.90;;;17.50;99.90;;;;;;5005368;28;20037;-71
2023/09/18 06:06:10;;;;;;;8.95;4.45;;;17.60;99.90;;;;;;5022310;28;20041;-71
2023/09/18 06:08:36;;;;;;;10.93;3.45;;;17.60;99.90;;;;;;5005507;28;20360;-71
2023/09/18 06:11:01;;;;;;;7.35;3.90;;;17.60;99.90;;;;;;5030217;28;20052;-71
2023/09/18 06:13:27;;;;;;;8.45;3.92;;;17.60;99.90;;;;;;5026736;28;20045;-71
2023/09/18 06:15:56;;;;;;;5.85;3.55;;;17.60;99.90;;;;;;5024261;28;20080;-71
2023/09/18 06:18:22;;;;;;;5.80;3.47;;;17.70;99.90;;;;;;5023382;28;20038;-71
2023/09/18 06:20:49;;;;;;;8.48;3.70;;;17.60;99.90;;;;;;5019430;28;20029;-70
2023/09/18 06:23:15;;;;;;;7.85;3.78;;;17.70;99.90;;;;;;5022250;28;20045;-76
2023/09/18 06:25:41;;;;;;;9.32;3.97;;;17.70;99.90;;;;;;5022293;28;20536;-71
2023/09/18 06:28:06;;;;;;;8.82;3.60;;;17.70;99.90;;;;;;5022472;28;20041;-71
2023/09/18 06:30:33;;;;;;;6.70;3.60;;;17.80;99.90;;;;;;5022942;28;20398;-71
2023/09/18 06:33:03;;;;;;;7.18;3.58;;;17.70;99.90;;;;;;5021960;28;20047;-71
2023/09/18 06:35:29;;;;;;;12.02;4.20;;;17.70;99.90;;;;;;5018991;28;20041;-71
2023/09/18 06:37:58;;;;;;;10.82;3.58;;;17.80;99.90;;;;;;5019827;28;20088;-71
2023/09/18 06:40:25;;;;;;;5.57;3.28;;;17.80;99.90;;;;;;5016686;28;20088;-71
2023/09/18 06:42:51;;;;;;;7.03;3.58;;;17.80;99.90;;;;;;5021489;28;20495;-71
2023/09/18 06:45:17;;;;;;;6.50;3.65;;;17.80;99.90;;;;;;5022447;28;20371;-71
2023/09/18 06:47:42;;;;;;;8.98;3.63;;;17.80;99.90;;;;;;5006139;28;20049;-71
2023/09/18 06:50:09;;;;;;;6.00;3.35;;;17.70;99.90;;;;;;5018321;28;20175;-71
2023/09/18 06:52:35;;;;;;;7.65;3.40;;;17.80;99.90;;;;;;5023525;28;20053;-71
2023/09/18 06:55:00;;;;;;;7.63;4.38;;;17.80;99.90;;;;;;5020422;28;20056;-71
2023/09/18 06:57:27;;;;;;;8.77;3.80;;;17.80;99.90;;;;;;5022391;28;20488;-71
2023/09/18 06:59:53;;;;;;;7.38;4.38;;;17.80;99.90;;;;;;5023221;28;20038;-71
2023/09/18 07:02:18;;;;;;;9.95;4.90;;;17.90;99.90;;;;;;5041630;28;20099;-71
2023/09/18 07:04:46;;;;;;;9.77;4.75;;;17.90;99.90;;;;;;5024949;28;20073;-71
2023/09/18 07:07:13;;;;;;;8.10;4.18;;;18.00;99.90;;;;;;5037545;28;20045;-71
2023/09/18 07:09:41;;;;;;;10.23;4.88;;;17.90;99.90;;;;;;5025581;28;20037;-71
2023/09/18 07:12:08;;;;;;;13.32;5.88;;;18.00;99.90;;;;;;5028008;28;20056;-71
2023/09/18 07:14:33;;;;;;;10.30;5.30;;;18.00;99.90;;;;;;5025432;28;20053;-71
2023/09/18 07:17:00;;;;;;;8.68;4.38;;;18.00;99.90;;;;;;5023279;28;20375;-71
2023/09/18 07:19:26;;;;;;;6.28;3.40;;;18.00;99.90;;;;;;5024622;28;20407;-70
2023/09/18 07:21:51;;;;;;;6.07;3.55;;;17.90;99.90;;;;;;5023152;28;20040;-70
2023/09/18 07:24:17;;;;;;;6.65;3.28;;;17.90;99.90;;;;;;5025012;28;20247;-70
2023/09/18 07:26:47;;;;;;;6.10;3.58;;;17.90;99.90;;;;;;5022652;28;20037;-70
2023/09/18 07:29:14;;;;;;;6.47;3.40;;;17.90;99.90;;;;;;5023450;28;20065;-70
2023/09/18 07:31:41;;;;;;;8.60;4.38;;;17.90;99.90;;;;;;5024348;28;20042;-71
2023/09/18 07:34:06;;;;;;;6.55;4.03;;;17.90;99.90;;;;;;5019429;28;20037;-70
2023/09/18 07:36:32;;;;;;;6.88;3.58;;;17.90;99.90;;;;;;5006661;28;20391;-70
2023/09/18 07:38:58;;;;;;;7.22;4.15;;;17.80;99.90;;;;;;5025575;28;20037;-70
2023/09/18 07:41:25;;;;;;;7.55;4.28;;;17.80;99.90;;;;;;5026713;28;20034;-70
2023/09/18 07:43:50;;;;;;;7.65;4.05;;;17.80;99.90;;;;;;5040638;28;20045;-70
2023/09/18 07:46:16;;;;;;;7.22;4.07;;;17.90;99.90;;;;;;5024605;28;20384;-70
2023/09/18 07:48:41;;;;;;;7.85;3.90;;;17.80;99.90;;;;;;5022882;28;20045;-70
2023/09/18 07:51:13;;;;;;;9.55;4.25;;;17.90;99.90;;;;;;5023697;28;20513;-70
2023/09/18 07:53:40;;;;;;;6.03;3.60;;;17.90;99.90;;;;;;5022756;28;20280;-70
2023/09/18 07:56:05;;;;;;;7.78;3.92;;;18.00;99.90;;;;;;5022934;28;20047;-70
2023/09/18 07:58:33;;;;;;;8.15;4.30;;;18.00;99.90;;;;;;5023518;28;20049;-70
2023/09/18 08:00:58;;;;;;;7.00;3.80;;;18.00;99.90;;;;;;5020171;28;20390;-70
2023/09/18 08:03:25;;;;;;;7.43;4.40;;;18.10;99.90;;;;;;5003009;28;20037;-71
2023/09/18 08:05:55;;;;;;;8.43;4.35;;;18.10;99.90;;;;;;5020304;28;20089;-71
2023/09/18 08:08:23;;;;;;;7.43;3.58;;;18.10;99.90;;;;;;5003633;28;20065;-70
2023/09/18 08:10:49;;;;;;;7.93;3.90;;;18.10;99.90;;;;;;5021233;28;20084;-71
2023/09/18 08:13:16;;;;;;;7.15;4.30;;;18.10;99.90;;;;;;5019430;28;20037;-71
2023/09/18 08:15:41;;;;;;;8.45;4.22;;;18.10;99.90;;;;;;5015397;28;20553;-70
2023/09/18 08:18:07;;;;;;;6.28;3.55;;;18.00;99.90;;;;;;5018506;28;20033;-71
2023/09/18 08:20:33;;;;;;;9.80;3.83;;;18.10;99.90;;;;;;5020042;28;20916;-71
2023/09/18 08:23:01;;;;;;;7.63;3.80;;;18.10;99.90;;;;;;5021065;28;20083;-70
2023/09/18 08:25:27;;;;;;;7.25;3.95;;;18.10;99.90;;;;;;5016984;28;20041;-70
2023/09/18 08:27:52;;;;;;;7.63;3.78;;;18.10;99.90;;;;;;5037802;28;20071;-71
2023/09/18 08:30:20;;;;;;;7.47;3.53;;;18.10;99.90;;;;;;5021046;28;20048;-71
2023/09/18 08:32:47;;;;;;;6.95;3.78;;;18.10;99.90;;;;;;5031178;28;20120;-71
2023/09/18 08:35:12;;;;;;;12.02;3.97;;;18.10;99.90;;;;;;5020504;28;20046;-70
2023/09/18 08:37:41;;;;;;;6.88;4.22;;;18.10;99.90;;;;;;5021094;28;20032;-70
2023/09/18 08:40:09;;;;;;;8.85;4.40;;;18.10;99.90;;;;;;5017204;28;20049;-70
2023/09/18 08:42:39;;;;;;;10.75;3.67;;;18.10;99.90;;;;;;4996840;28;20152;-71
2023/09/18 08:45:09;;;;;;;8.63;4.90;;;18.10;99.90;;;;;;5016887;28;20532;-71
2023/09/18 08:47:35;;;;;;;8.77;4.50;;;18.20;99.90;;;;;;4998474;28;20037;-71
2023/09/18 08:50:01;;;;;;;9.38;4.22;;;18.20;99.90;;;;;;5017175;28;21917;-71
2023/09/18 08:52:27;;;;;;;11.73;4.90;;;18.20;99.90;;;;;;5018042;28;20536;-71
2023/09/18 08:54:55;;;;;;;9.23;5.05;;;18.20;99.90;;;;;;4998665;28;20091;-71
2023/09/18 08:57:21;;;;;;;9.75;4.60;;;18.20;99.90;;;;;;4999766;28;20033;-71
2023/09/18 08:59:50;;;;;;;10.32;5.07;;;18.20;99.90;;;;;;5021941;28;20499;-71
2023/09/18 09:02:15;;;;;;;9.25;5.32;;;18.20;99.90;;;;;;5024133;28;20042;-76
2023/09/18 09:04:41;;;;;;;11.32;4.88;;;18.30;99.90;;;;;;5005508;28;20048;-73
2023/09/18 09:07:07;;;;;;;10.63;5.47;;;18.30;99.90;;;;;;5017216;28;20541;-75
2023/09/18 09:09:33;;;;;;;9.27;5.03;;;18.30;99.90;;;;;;5018910;28;20041;-70
2023/09/18 09:11:59;;;;;;;11.07;5.28;;;18.30;99.90;;;;;;5036375;28;20041;-71
2023/09/18 09:14:30;;;;;;;8.57;5.13;;;18.30;99.90;;;;;;5019703;28;20091;-70
2023/09/18 09:17:00;;;;;;;7.80;4.65;;;18.30;99.90;;;;;;5037634;28;20033;-70
2023/09/18 09:19:36;;;;;;;10.32;4.65;;;18.30;99.90;;;;;;5018774;28;20068;-70
2023/09/18 09:22:02;;;;;;;8.98;5.03;;;18.40;99.90;;;;;;5014911;28;20510;-70
2023/09/18 09:24:40;;;;;;;10.27;5.40;;;18.40;99.90;;;;;;5041298;28;20041;-70
2023/09/18 09:27:06;;;;;;;11.00;5.60;;;18.40;99.90;;;;;;5043678;28;20037;-70
2023/09/18 09:29:31;;;;;;;10.07;5.65;;;18.40;99.90;;;;;;5041648;28;20040;-70
2023/09/18 09:32:16;;;;;;;8.93;5.15;;;18.40;99.90;;;;;;5022232;28;20116;-70
2023/09/18 09:34:42;;;;;;;11.18;5.90;;;18.50;99.90;;;;;;5019804;28;20041;-70
2023/09/18 09:37:08;;;;;;;11.50;5.72;;;18.60;99.90;;;;;;5021934;28;20029;-71
2023/09/18 09:39:34;;;;;;;14.38;5.78;;;18.60;99.90;;;;;;5023505;28;20167;-71
2023/09/18 09:42:03;;;;;;;12.55;5.95;;;18.70;99.90;;;;;;5009141;28;20261;-70
2023/09/18 09:44:31;;;;;;;10.05;5.47;;;18.70;99.90;;;;;;5004687;28;20042;-71
2023/09/18 09:46:59;;;;;;;13.48;5.53;;;18.70;99.90;;;;;;5039230;28;20157;-70
2023/09/18 09:49:27;;;;;;;11.90;6.25;;;18.80;99.90;;;;;;5017282;28;20187;-70
2023/09/18 09:51:54;;;;;;;9.68;5.10;;;18.80;99.90;;;;;;5019872;28;20068;-70
2023/09/18 09:54:34;;;;;;;12.95;5.47;;;18.90;99.90;;;;;;5023330;28;20041;-70
2023/09/18 09:57:03;;;;;;;10.75;6.07;;;19.10;99.90;;;;;;5018618;28;20045;-70
2023/09/18 09:59:29;;;;;;;11.15;5.85;;;19.10;99.90;;;;;;5024859;28;20045;-70
2023/09/18 10:01:57;;;;;;;10.80;6.50;;;19.10;99.90;;;;;;5021291;28;20593;-70
2023/09/18 10:04:25;;;;;;;9.13;4.72;;;19.20;99.90;;;;;;5019054;28;20037;-69
2023/09/18 10:06:56;;;;;;;11.13;6.05;;;19.20;99.90;;;;;;5021427;28;20614;-70
2023/09/18 10:09:23;;;;;;;11.23;5.75;;;19.30;99.90;;;;;;5031643;28;20037;-70
2023/09/18 10:11:54;;;;;;;12.80;5.90;;;19.30;99.90;;;;;;5022000;28;20033;-69
2023/09/18 10:14:23;;;;;;;9.35;5.47;;;19.40;99.90;;;;;;5022401;28;20037;-70
2023/09/18 10:16:55;;;;;;;10.50;5.07;;;19.30;99.90;;;;;;5023429;28;20124;-70
2023/09/18 10:19:37;;;;;;;11.73;5.75;;;19.40;99.90;;;;;;5002367;28;20581;-70
2023/09/18 10:22:12;;;;;;;9.90;5.32;;;19.40;99.90;;;;;;5000445;28;20036;-70
2023/09/18 10:24:45;;;;;;;10.70;5.10;;;19.40;99.90;;;;;;5022088;28;20095;-70
2023/09/18 10:27:13;;;;;;;10.35;5.60;;;19.40;99.90;;;;;;5022522;28;20045;-70
2023/09/18 10:29:41;;;;;;;8.65;4.75;;;19.40;99.90;;;;;;5022640;28;20518;-70
2023/09/18 10:32:07;;;;;;;9.32;4.90;;;19.50;99.90;;;;;;5021028;28;20049;-70
2023/09/18 10:34:34;;;;;;;10.20;4.85;;;19.50;99.90;;;;;;5024485;28;20478;-70
2023/09/18 10:37:06;;;;;;;9.27;4.45;;;19.50;99.90;;;;;;5025907;28;20099;-70
2023/09/18 10:39:37;;;;;;;8.05;4.10;;;19.50;99.90;;;;;;5024308;28;20045;-70
2023/09/18 10:42:04;;;;;;;8.20;4.82;;;19.60;99.90;;;;;;5026145;28;20083;-71
2023/09/18 10:44:33;;;;;;;8.77;4.55;;;19.60;99.90;;;;;;5021397;28;20116;-70
2023/09/18 10:47:01;;;;;;;9.27;4.90;;;19.60;99.90;;;;;;5022056;28;20048;-70
2023/09/18 10:49:27;;;;;;;6.97;4.43;;;19.70;99.90;;;;;;5017788;28;20439;-69
2023/09/18 10:51:54;;;;;;;8.23;4.80;;;19.70;99.90;;;;;;5017905;28;20040;-71
2023/09/18 10:54:25;;;;;;;8.52;4.30;;;19.70;99.90;;;;;;5021807;28;20030;-69
2023/09/18 10:56:51;;;;;;;10.88;4.72;;;19.80;99.90;;;;;;5023016;28;20054;-72
2023/09/18 10:59:17;;;;;;;7.07;3.95;;;19.80;99.90;;;;;;5026395;28;20033;-70
2023/09/18 11:01:44;;;;;;;9.18;4.18;;;19.80;99.90;;;;;;5026751;28;20087;-70
2023/09/18 11:04:10;;;;;;;6.47;4.22;;;19.90;99.90;;;;;;5028481;28;20052;-70
2023/09/18 11:06:54;;;;;;;7.32;3.97;;;20.00;99.90;;;;;;5044903;28;20041;-70
2023/09/18 11:09:21;;;;;;;6.65;3.75;;;19.90;99.90;;;;;;5028712;28;20102;-70
2023/09/18 11:11:58;;;;;;;7.85;3.17;;;19.90;99.90;;;;;;5027527;28;20191;-70
2023/09/18 11:14:44;;;;;;;5.63;3.45;;;19.90;99.90;;;;;;5027966;28;20038;-70
2023/09/18 11:17:39;;;;;;;7.28;3.35;;;19.90;99.90;;;;;;5041873;28;20033;-70
2023/09/18 11:20:20;;;;;;;5.25;3.30;;;19.90;99.90;;;;;;5027006;28;20037;-70
2023/09/18 11:23:00;;;;;;;5.90;2.83;;;19.90;99.90;;;;;;5018891;28;20157;-70
2023/09/18 11:25:37;;;;;;;5.25;2.90;;;19.80;99.90;;;;;;5021960;28;20034;-70
2023/09/18 11:28:07;;;;;;;5.38;3.63;;;19.80;99.90;;;;;;5016983;28;20674;-70
2023/09/18 11:30:36;;;;;;;5.03;3.03;;;19.80;99.90;;;;;;5023310;28;20184;-70
2023/09/18 11:33:06;;;;;;;6.03;3.22;;;19.80;99.90;;;;;;5025283;28;20239;-70
2023/09/18 11:35:33;;;;;;;6.57;2.83;;;19.80;99.90;;;;;;5023470;28;20593;-70
2023/09/18 11:38:09;;;;;;;4.15;2.95;;;19.80;99.90;;;;;;5004456;28;20029;-70
2023/09/18 11:40:41;;;;;;;5.45;2.92;;;19.80;99.90;;;;;;5019375;28;20296;-70
2023/09/18 11:43:29;;;;;;;5.68;3.20;;;19.80;99.90;;;;;;5005549;28;20033;-70
2023/09/18 11:45:56;;;;;;;5.95;3.30;;;19.80;99.90;;;;;;5024760;28;20406;-71
2023/09/18 11:48:24;;;;;;;4.47;3.05;;;19.80;99.90;;;;;;5024289;28;20041;-70
2023/09/18 11:50:52;;;;;;;6.40;3.45;;;19.70;99.90;;;;;;5016669;28;20601;-70
2023/09/18 11:53:18;;;;;;;6.22;3.00;;;19.70;99.90;;;;;;5023433;28;20361;-70
2023/09/18 11:55:44;;;;;;;4.72;2.83;;;19.80;99.90;;;;;;5006167;28;20099;-70
2023/09/18 11:58:10;;;;;;;4.80;3.15;;;19.80;99.90;;;;;;5043523;28;20037;-70
2023/09/18 12:00:45;;;;;;;4.25;2.78;;;19.80;99.90;;;;;;5022344;28;20056;-70
2023/09/18 12:03:25;;;;;;;7.82;3.17;;;19.80;99.90;;;;;;5002623;28;20041;-71
2023/09/18 12:06:01;;;;;;;4.35;2.70;;;19.80;99.90;;;;;;5019272;28;20041;-70
2023/09/18 12:08:30;;;;;;;3.63;2.38;;;19.80;99.90;;;;;;5023681;28;20048;-71
2023/09/18 12:10:56;;;;;;;3.10;2.10;;;19.80;99.90;;;;;;5004443;28;20072;-71
2023/09/18 12:13:25;;;;;;;3.35;2.30;;;19.80;99.90;;;;;;5004362;28;20518;-71
2023/09/18 12:15:57;;;;;;;3.92;2.28;;;19.80;99.90;;;;;;5023341;28;20499;-70
2023/09/18 12:18:24;;;;;;;5.32;2.78;;;19.80;99.90;;;;;;5041149;28;20036;-71
2023/09/18 12:20:50;;;;;;;3.28;2.42;;;19.80;99.90;;;;;;5008733;28;20083;-70
2023/09/18 12:23:19;;;;;;;4.63;2.92;;;19.80;99.90;;;;;;5021385;28;20105;-71
2023/09/18 12:25:50;;;;;;;4.82;2.97;;;19.80;99.90;;;;;;5008979;28;20033;-71
2023/09/18 12:28:18;;;;;;;4.82;2.58;;;19.90;99.90;;;;;;5024444;28;20669;-69
2023/09/18 12:30:46;;;;;;;6.88;2.20;;;20.00;99.90;;;;;;5040961;28;20538;-70
2023/09/18 12:33:12;;;;;;;4.38;2.50;;;20.00;99.90;;;;;;5009564;28;20041;-70
2023/09/18 12:35:40;;;;;;;3.72;2.40;;;20.00;99.90;;;;;;5021071;28;20046;-70
2023/09/18 12:38:22;;;;;;;4.78;2.55;;;20.10;99.90;;;;;;5028216;28;20042;-70
2023/09/18 12:40:49;;;;;;;3.72;2.47;;;20.20;99.90;;;;;;5025879;28;20434;-70
2023/09/18 12:43:15;;;;;;;5.75;2.47;;;20.20;99.90;;;;;;5028709;28;20033;-70